Arklow, Ireland
Current Conditions -  °F | °C
As of 8:30 AM on Tuesday 21 Oct 2014 (Local Time) from EIME Reporting Station
Broken Clouds Broken Clouds  
Wind Chill: 36°   Ceiling: 15000
Heat Index: 45°   Visibility: 6mi
Dew Point: 41°   Wind: 23mph
Humidity: 87%   Direction: 260°W
Pressure: 29.68"   Gusts: NA
Location:  52.8°N, 6.15°W
Report Text: EIME 210730Z 26020KT 9999 FEW018 SCT030 BKN150 07/05 Q1005
Loading
Personal Weather Stations






























Interactive Weather Map
Tropical Storm Tracking
New forecast layout! Learn more

10-Day Weather Forecast

Advertisements
Track Severe Weather on mobile